This is the latest recevied weather packets stored in our database for station/object K4AGR-13. If no packets are shown the sender has not sent any weather packets the latest 10 day(s).
| Time | Temp. | Humidity | Pressure | Rain* | Wind** | Luminosity | Snow |
|---|---|---|---|---|---|---|---|
| 1777263507 | 18.33° C | 89% | 1013.6 hPa | 0 mm | - | 0 W/m² | - |
| 1777263202 | 18.33° C | 89% | 1013.6 hPa | 0 mm | - | 0 W/m² | - |
| 1777262900 | 18.33° C | 88% | 1013.7 hPa | 0 mm | - | 0 W/m² | - |
| 1777262596 | 18.33° C | 88% | 1013.8 hPa | 0 mm | - | 0 W/m² | - |
| 1777262293 | 18.33° C | 87% | 1013.9 hPa | 0 mm | - | 0 W/m² | - |
| 1777261990 | 18.33° C | 86% | 1013.7 hPa | 0 mm | - | 0 W/m² | - |
| 1777261686 | 18.89° C | 86% | 1013.9 hPa | 0 mm | - | 0 W/m² | - |
| 1777261383 | 18.89° C | 86% | 1013.7 hPa | 0 mm | - | 0 W/m² | - |
| 1777261081 | 18.89° C | 86% | 1013.8 hPa | 0 mm | - | 0 W/m² | - |
| 1777260779 | 18.89° C | 86% | 1013.8 hPa | 0 mm | - | 0 W/m² | - |
| 1777260475 | 19.44° C | 85% | 1013.8 hPa | 0 mm | - | 0 W/m² | - |
| 1777260170 | 19.44° C | 85% | 1013.6 hPa | 0 mm | - | 0 W/m² | - |
| 1777259867 | 19.44° C | 84% | 1013.6 hPa | 0 mm | - | 0 W/m² | - |
| 1777259564 | 19.44° C | 84% | 1013.5 hPa | 0 mm | - | 0 W/m² | - |
| 1777259262 | 19.44° C | 85% | 1013.5 hPa | 0 mm | - | 0 W/m² | - |
| 1777258347 | 19.44° C | 85% | 1013.6 hPa | 0 mm | - | 0 W/m² | - |
| 1777257742 | 19.44° C | 83% | 1013.4 hPa | 0 mm | - | 0 W/m² | - |
| 1777255014 | 20° C | 80% | 1012.6 hPa | 0 mm | - | 0 W/m² | - |
| 1777233489 | 28.33° C | 50% | 1011.4 hPa | 0 mm | - | 334 W/m² | - |
| 1777232582 | 28.33° C | 49% | 1011.3 hPa | 0 mm | - | 582 W/m² | - |
| 1777231370 | 28.89° C | 49% | 1011.5 hPa | 0 mm | - | 452 W/m² | - |
| 1777231065 | 28.89° C | 48% | 1011.6 hPa | 0 mm | - | 486 W/m² | - |
| 1777228642 | 28.89° C | 49% | 1011.8 hPa | 0 mm | - | 445 W/m² | - |
| 1777228035 | 28.33° C | 49% | 1011.8 hPa | 0 mm | - | 398 W/m² | - |
| 1777224098 | 28.89° C | 49% | 1012.2 hPa | 0 mm | - | 478 W/m² | - |
* Rain latest hour (hover to see other rain measurements)
** Current wind speed in m/s (hover to see current wind gust speed)